Time;durP1;ratioP1;P1;durP2;ratioP2;P2;SDS_P1;SDS_P2;PMS_P1;PMS_P2;Temp;Humidity;BMP_temperature;BMP_pressure;BME280_temperature;BME280_humidity;BME280_pressure;Samples;Min_cycle;Max_cycle;Signal;HPM_P1;HPM_P2
2022/09/04 00:00:50;;;;;;;5.95;5.25;;;;;;;16.79;100.00;98393.19;2626851;28;20475;-79
2022/09/04 00:02:36;;;;;;;7.70;5.57;;;;;;;16.80;100.00;98391.38;2626954;28;20464;-77
2022/09/04 00:04:00;;;;;;;6.35;5.40;;;;;;;16.68;100.00;98403.47;2626862;28;20058;-78
2022/09/04 00:05:21;;;;;;;8.93;5.50;;;;;;;16.76;100.00;98396.00;2625999;28;20060;-77
2022/09/04 00:06:48;;;;;;;7.03;5.63;;;;;;;16.78;100.00;98393.25;2626568;28;20055;-79
2022/09/04 00:08:16;;;;;;;7.40;5.63;;;;;;;16.76;100.00;98396.00;2626873;28;20052;-78
2022/09/04 00:09:50;;;;;;;6.70;5.40;;;;;;;16.75;100.00;98390.78;2626711;28;20098;-78
2022/09/04 00:11:18;;;;;;;6.95;5.22;;;;;;;16.66;100.00;98400.06;2626714;28;20055;-81
2022/09/04 00:12:57;;;;;;;7.60;5.85;;;;;;;16.67;100.00;98393.84;2626668;28;20067;-77
2022/09/04 00:14:12;;;;;;;6.65;5.95;;;;;;;16.62;100.00;98399.38;2627009;28;20586;-78
2022/09/04 00:15:59;;;;;;;6.13;4.90;;;;;;;16.50;100.00;98400.03;2626671;28;20051;-78
2022/09/04 00:17:40;;;;;;;7.35;5.55;;;;;;;16.48;100.00;98401.91;2611092;28;20064;-78
2022/09/04 00:19:07;;;;;;;7.50;5.47;;;;;;;16.30;100.00;98409.88;2620055;28;20060;-78
2022/09/04 00:20:44;;;;;;;8.50;5.30;;;;;;;16.10;100.00;98414.38;2626781;28;20052;-77
2022/09/04 00:22:21;;;;;;;7.03;5.32;;;;;;;16.26;100.00;98408.28;2626611;28;20490;-78
2022/09/04 00:23:58;;;;;;;9.52;5.13;;;;;;;16.32;100.00;98412.41;2626803;28;20445;-78
2022/09/04 00:25:32;;;;;;;7.05;5.03;;;;;;;16.24;100.00;98410.16;2626704;28;20044;-78
2022/09/04 00:27:06;;;;;;;6.15;4.68;;;;;;;16.32;100.00;98401.84;2627130;28;20171;-82
2022/09/04 00:28:34;;;;;;;9.13;5.53;;;;;;;16.21;100.00;98408.56;2626596;28;20147;-78
2022/09/04 00:30:06;;;;;;;5.30;4.38;;;;;;;16.30;100.00;98404.59;2626868;28;20044;-78
2022/09/04 00:31:32;;;;;;;7.55;4.80;;;;;;;16.17;100.00;98403.50;2626872;28;20056;-77
2022/09/04 00:32:59;;;;;;;6.10;4.68;;;;;;;16.15;100.00;98408.84;2626968;28;20052;-78
2022/09/04 00:34:27;;;;;;;8.27;5.03;;;;;;;16.09;100.00;98407.38;2626950;28;20138;-78
2022/09/04 00:35:48;;;;;;;7.47;5.30;;;;;;;16.21;100.00;98405.91;2626701;28;20101;-77
2022/09/04 00:37:08;;;;;;;7.18;4.97;;;;;;;16.25;100.00;98409.22;2627260;28;20422;-78
2022/09/04 00:38:41;;;;;;;9.20;5.38;;;;;;;16.14;100.00;98403.69;2626611;28;20048;-78
2022/09/04 00:40:08;;;;;;;8.15;5.10;;;;;;;16.14;100.00;98408.97;2626516;28;20044;-78
2022/09/04 00:41:39;;;;;;;6.55;4.88;;;;;;;16.28;100.00;98408.22;2626727;28;20059;-78
2022/09/04 00:43:23;;;;;;;7.40;5.47;;;;;;;16.36;100.00;98409.53;2626568;28;20044;-77
2022/09/04 00:45:08;;;;;;;8.48;5.22;;;;;;;16.36;100.00;98412.16;2626562;28;20048;-77
2022/09/04 00:46:58;;;;;;;7.75;5.10;;;;;;;16.32;100.00;98415.91;2626485;28;20764;-78
2022/09/04 00:48:41;;;;;;;7.40;5.10;;;;;;;16.46;100.00;98412.53;2626845;28;20378;-79
2022/09/04 00:50:18;;;;;;;6.32;5.57;;;;;;;16.54;100.00;98416.56;2626598;28;20052;-78
2022/09/04 00:52:03;;;;;;;6.85;5.40;;;;;;;16.52;100.00;98420.16;2626668;28;20113;-79
2022/09/04 00:53:52;;;;;;;7.15;5.30;;;;;;;16.52;100.00;98428.09;2626616;28;20067;-78
2022/09/04 00:55:29;;;;;;;7.38;6.22;;;;;;;16.58;100.00;98423.41;2626441;28;20043;-78
2022/09/04 00:57:23;;;;;;;7.07;5.63;;;;;;;16.54;100.00;98421.88;2626803;28;20040;-78
2022/09/04 00:59:00;;;;;;;6.53;5.32;;;;;;;16.55;100.00;98431.50;2604346;28;20515;-78
2022/09/04 01:00:18;;;;;;;7.18;5.32;;;;;;;16.51;100.00;98428.16;2626795;28;20059;-78
2022/09/04 01:01:34;;;;;;;6.50;5.43;;;;;;;16.51;100.00;98421.09;2628270;28;20570;-78
2022/09/04 01:02:55;;;;;;;7.75;5.38;;;;;;;16.50;100.00;98422.03;2628653;28;20108;-78
2022/09/04 01:04:25;;;;;;;6.72;5.22;;;;;;;16.44;100.00;98427.63;2628546;28;20059;-78
2022/09/04 01:06:12;;;;;;;6.07;5.05;;;;;;;16.45;100.00;98428.50;2628461;28;20054;-77
2022/09/04 01:07:41;;;;;;;9.10;5.68;;;;;;;16.39;100.00;98429.66;2628731;28;20121;-77
2022/09/04 01:09:16;;;;;;;7.65;5.43;;;;;;;16.26;100.00;98433.88;2628440;28;20447;-78
2022/09/04 01:11:15;;;;;;;6.95;5.65;;;;;;;16.26;100.00;98440.00;2628662;28;20052;-77
2022/09/04 01:12:41;;;;;;;11.40;6.38;;;;;;;16.27;100.00;98436.41;2628537;28;20475;-79
2022/09/04 01:14:00;;;;;;;9.63;6.15;;;;;;;16.32;100.00;98428.25;2628370;28;20048;-77
2022/09/04 01:15:26;;;;;;;9.15;6.10;;;;;;;16.32;100.00;98429.13;2628602;28;20557;-78
2022/09/04 01:16:51;;;;;;;6.25;5.45;;;;;;;16.31;100.00;98431.84;2628498;28;20048;-79
2022/09/04 01:18:12;;;;;;;9.20;5.43;;;;;;;16.34;100.00;98432.53;2628735;28;20581;-77
2022/09/04 01:19:28;;;;;;;6.60;5.40;;;;;;;16.27;100.00;98435.56;2628741;28;20173;-78
2022/09/04 01:21:17;;;;;;;5.70;4.97;;;;;;;16.34;100.00;98426.38;2628537;28;20060;-77
2022/09/04 01:22:59;;;;;;;6.10;4.78;;;;;;;16.40;100.00;98435.78;2628063;28;20048;-78
2022/09/04 01:24:20;;;;;;;8.50;4.93;;;;;;;16.44;100.00;98435.56;2628594;28;20055;-78
2022/09/04 01:25:59;;;;;;;5.55;4.57;;;;;;;16.46;100.00;98438.97;2628711;28;20048;-77
2022/09/04 01:27:23;;;;;;;6.57;4.63;;;;;;;16.43;100.00;98433.00;2627200;28;20093;-78
2022/09/04 01:28:44;;;;;;;6.38;4.90;;;;;;;16.46;100.00;98433.69;2628070;28;20055;-80
2022/09/04 01:30:13;;;;;;;7.75;4.70;;;;;;;16.50;100.00;98435.25;2628438;28;20044;-78
2022/09/04 01:31:46;;;;;;;5.57;4.35;;;;;;;16.52;100.00;98433.38;2628289;28;20075;-82
2022/09/04 01:33:09;;;;;;;6.22;4.70;;;;;;;16.50;100.00;98432.59;2628777;28;20451;-77
2022/09/04 01:34:46;;;;;;;6.22;4.45;;;;;;;16.51;100.00;98444.00;2628323;28;20056;-77
2022/09/04 01:36:12;;;;;;;4.95;4.40;;;;;;;16.46;100.00;98435.47;2628254;28;20869;-78
2022/09/04 01:37:33;;;;;;;6.28;4.85;;;;;;;16.44;100.00;98438.19;2628931;28;20059;-78
2022/09/04 01:38:54;;;;;;;8.52;5.68;;;;;;;16.49;100.00;98437.97;2628386;28;20454;-81
2022/09/04 01:40:22;;;;;;;6.60;5.78;;;;;;;16.54;100.00;98440.38;2628482;28;20502;-77
2022/09/04 01:41:45;;;;;;;9.38;6.43;;;;;;;16.41;100.00;98443.66;2628344;28;20056;-78
2022/09/04 01:43:19;;;;;;;8.50;5.95;;;;;;;16.51;100.00;98434.31;2628019;28;20048;-78
2022/09/04 01:44:35;;;;;;;12.00;6.35;;;;;;;16.57;100.00;98438.41;2628247;28;20200;-78
2022/09/04 01:46:10;;;;;;;8.85;6.13;;;;;;;16.58;100.00;98441.91;2628232;28;20051;-78
2022/09/04 01:47:38;;;;;;;6.25;5.65;;;;;;;16.57;100.00;98445.47;2627908;28;20124;-78
2022/09/04 01:49:19;;;;;;;8.65;6.50;;;;;;;16.56;100.00;98441.13;2627872;28;20052;-78
2022/09/04 01:50:37;;;;;;;10.32;5.90;;;;;;;16.53;100.00;98447.41;2628237;28;20500;-79
2022/09/04 01:52:13;;;;;;;7.72;5.90;;;;;;;16.40;100.00;98457.78;2628195;28;20059;-79
2022/09/04 01:53:34;;;;;;;7.20;5.40;;;;;;;16.36;100.00;98454.44;2627746;28;20094;-80
2022/09/04 01:55:28;;;;;;;5.82;5.00;;;;;;;16.07;100.00;98454.16;2628332;28;20048;-77
2022/09/04 01:56:50;;;;;;;8.35;4.72;;;;;;;16.01;100.00;98450.97;2628325;28;20086;-78
2022/09/04 01:58:24;;;;;;;5.90;4.15;;;;;;;16.06;100.00;98455.09;2628326;28;20059;-79
2022/09/04 01:59:58;;;;;;;6.38;4.60;;;;;;;16.13;100.00;98446.84;2628047;28;20048;-77
2022/09/04 02:01:31;;;;;;;6.95;4.15;;;;;;;16.25;100.00;98448.84;2628185;28;20052;-78
2022/09/04 02:03:16;;;;;;;5.75;4.35;;;;;;;16.33;100.00;98448.47;2627901;28;20131;-78
2022/09/04 02:04:41;;;;;;;5.60;4.43;;;;;;;16.37;100.00;98442.09;2627889;28;20090;-78
2022/09/04 02:06:11;;;;;;;6.80;4.88;;;;;;;16.40;100.00;98444.59;2627970;28;20079;-78
2022/09/04 02:07:38;;;;;;;5.72;4.28;;;;;;;16.34;100.00;98444.88;2627887;28;20143;-78
2022/09/04 02:09:15;;;;;;;6.10;4.45;;;;;;;16.35;100.00;98450.09;2628052;28;20052;-77
2022/09/04 02:10:46;;;;;;;8.75;5.40;;;;;;;16.21;100.00;98449.94;2627940;28;20430;-77
2022/09/04 02:12:34;;;;;;;6.93;5.30;;;;;;;16.23;100.00;98445.44;2627860;28;20063;-78
2022/09/04 02:14:09;;;;;;;8.82;6.20;;;;;;;16.32;100.00;98447.63;2627657;28;20060;-78
2022/09/04 02:15:32;;;;;;;7.65;5.50;;;;;;;16.29;100.00;98447.78;2627907;28;20467;-78
2022/09/04 02:16:57;;;;;;;6.95;6.10;;;;;;;16.32;100.00;98449.41;2627986;28;20052;-77
2022/09/04 02:18:25;;;;;;;7.05;5.47;;;;;;;16.32;100.00;98446.75;2628126;28;20509;-78
2022/09/04 02:20:01;;;;;;;7.85;5.97;;;;;;;16.43;100.00;98447.06;2627805;28;20135;-78
2022/09/04 02:21:31;;;;;;;7.30;5.50;;;;;;;16.37;100.00;98452.66;2628208;28;20055;-77
2022/09/04 02:23:28;;;;;;;6.93;5.80;;;;;;;16.32;100.00;98450.25;2627596;28;20108;-77
2022/09/04 02:25:10;;;;;;;6.35;5.20;;;;;;;16.32;100.00;98446.75;2628096;28;20055;-78
2022/09/04 02:26:36;;;;;;;9.82;5.50;;;;;;;16.15;100.00;98451.13;2627397;28;20048;-77
2022/09/04 02:28:32;;;;;;;11.45;5.60;;;;;;;16.26;100.00;98449.72;2627671;28;20079;-77
2022/09/04 02:29:57;;;;;;;7.93;5.53;;;;;;;16.24;100.00;98448.03;2627746;28;20063;-78
2022/09/04 02:31:25;;;;;;;8.38;5.65;;;;;;;16.21;100.00;98456.09;2627885;28;20215;-77
2022/09/04 02:33:08;;;;;;;8.18;5.50;;;;;;;16.08;100.00;98450.56;2627388;28;20044;-78
2022/09/04 02:34:46;;;;;;;7.53;5.40;;;;;;;16.14;100.00;98451.22;2626645;28;20056;-78
2022/09/04 02:36:26;;;;;;;5.78;5.10;;;;;;;16.21;100.00;98457.88;2627657;28;20123;-78
2022/09/04 02:38:10;;;;;;;7.40;5.53;;;;;;;16.26;100.00;98455.84;2627435;28;20085;-78
2022/09/04 02:39:54;;;;;;;6.70;5.13;;;;;;;16.26;100.00;98458.47;2627892;28;20078;-78
2022/09/04 02:41:20;;;;;;;10.43;5.50;;;;;;;16.06;100.00;98457.72;2627489;28;20050;-78
2022/09/04 02:43:04;;;;;;;6.40;5.53;;;;;;;16.13;100.00;98458.28;2627670;28;20059;-78
2022/09/04 02:44:28;;;;;;;7.97;5.40;;;;;;;15.99;100.00;98461.59;2627665;28;20055;-78
2022/09/04 02:46:07;;;;;;;8.77;6.07;;;;;;;15.98;100.00;98456.41;2627571;28;20089;-78
2022/09/04 02:47:29;;;;;;;7.68;5.43;;;;;;;16.03;100.00;98457.88;2627625;28;20065;-77
2022/09/04 02:49:13;;;;;;;8.38;5.82;;;;;;;16.01;100.00;98446.56;2627361;28;20064;-78
2022/09/04 02:50:59;;;;;;;9.15;5.60;;;;;;;16.10;100.00;98456.63;2627503;28;20494;-81
2022/09/04 02:52:37;;;;;;;7.22;5.47;;;;;;;16.12;100.00;98453.91;2627631;28;20532;-78
2022/09/04 02:54:37;;;;;;;7.97;5.40;;;;;;;16.21;100.00;98448.19;2627366;28;20073;-78
2022/09/04 02:56:18;;;;;;;10.05;5.80;;;;;;;16.26;100.00;98455.00;2627668;28;20079;-78
2022/09/04 02:57:56;;;;;;;7.90;5.68;;;;;;;16.28;100.00;98454.00;2627555;28;20052;-78
2022/09/04 02:59:36;;;;;;;8.65;5.60;;;;;;;16.29;100.00;98455.72;2627668;28;20139;-78
2022/09/04 03:01:01;;;;;;;6.85;5.28;;;;;;;16.28;100.00;98455.78;2627019;28;20059;-78
2022/09/04 03:02:32;;;;;;;7.03;5.75;;;;;;;16.23;100.00;98454.22;2627451;28;20485;-78
2022/09/04 03:04:03;;;;;;;7.13;5.25;;;;;;;16.16;100.00;98455.47;2627212;28;20095;-80
2022/09/04 03:05:23;;;;;;;7.95;5.38;;;;;;;16.08;100.00;98455.03;2627712;28;20661;-78
2022/09/04 03:06:58;;;;;;;6.25;5.60;;;;;;;15.99;100.00;98455.47;2627507;28;20048;-78
2022/09/04 03:08:17;;;;;;;8.20;5.40;;;;;;;15.96;100.00;98456.47;2627378;28;20044;-77
2022/09/04 03:09:41;;;;;;;5.97;4.57;;;;;;;15.92;100.00;98461.06;2627499;28;20059;-77
2022/09/04 03:11:03;;;;;;;7.22;5.10;;;;;;;15.90;100.00;98452.34;2627333;28;20056;-79
2022/09/04 03:12:44;;;;;;;6.50;4.88;;;;;;;15.89;100.00;98458.56;2627343;28;20055;-78
2022/09/04 03:14:14;;;;;;;8.63;5.30;;;;;;;15.89;100.00;98458.56;2627413;28;20135;-77
2022/09/04 03:15:30;;;;;;;5.65;5.05;;;;;;;15.92;100.00;98458.44;2627545;28;20055;-77
2022/09/04 03:17:10;;;;;;;6.25;5.10;;;;;;;15.92;100.00;98452.28;2627680;28;20052;-77
2022/09/04 03:18:51;;;;;;;6.72;5.20;;;;;;;15.89;100.00;98461.19;2606641;28;20084;-77
2022/09/04 03:20:16;;;;;;;7.32;5.07;;;;;;;15.91;100.00;98469.91;2627125;28;20052;-79
2022/09/04 03:21:59;;;;;;;8.52;5.28;;;;;;;15.95;100.00;98463.56;2626744;28;20052;-78
2022/09/04 03:23:41;;;;;;;7.00;5.22;;;;;;;15.98;100.00;98462.53;2627396;28;20051;-77
2022/09/04 03:25:23;;;;;;;5.60;4.80;;;;;;;15.98;100.00;98473.09;2623902;28;20044;-77
2022/09/04 03:26:45;;;;;;;6.28;5.10;;;;;;;16.01;100.00;98470.31;2627401;28;20052;-78
2022/09/04 03:28:01;;;;;;;7.75;4.90;;;;;;;16.06;100.00;98476.22;2626786;28;20044;-77
2022/09/04 03:29:38;;;;;;;7.38;5.28;;;;;;;16.14;100.00;98469.72;2627068;28;20062;-76
2022/09/04 03:30:57;;;;;;;8.25;5.57;;;;;;;16.09;100.00;98469.94;2627471;28;20044;-77
2022/09/04 03:32:42;;;;;;;7.05;5.45;;;;;;;16.01;100.00;98478.25;2627617;28;20404;-78
2022/09/04 03:34:11;;;;;;;6.15;5.38;;;;;;;15.99;100.00;98480.06;2627180;28;20112;-78
2022/09/04 03:35:36;;;;;;;5.70;4.72;;;;;;;16.00;100.00;98470.38;2627342;28;20249;-77
2022/09/04 03:37:17;;;;;;;6.40;5.20;;;;;;;16.01;100.00;98478.25;2627140;28;20052;-77
2022/09/04 03:38:45;;;;;;;7.47;4.93;;;;;;;15.97;100.00;98478.47;2626565;28;20044;-77
2022/09/04 03:40:21;;;;;;;8.63;4.85;;;;;;;15.70;100.00;98481.50;2626585;28;20048;-78
2022/09/04 03:41:55;;;;;;;5.88;4.70;;;;;;;15.66;100.00;98480.78;2619070;28;20054;-77
2022/09/04 03:43:21;;;;;;;5.78;4.80;;;;;;;15.60;100.00;98481.09;2627004;28;20084;-79
2022/09/04 03:45:03;;;;;;;8.10;4.53;;;;;;;15.55;100.00;98481.31;2626828;28;20048;-77
2022/09/04 03:46:25;;;;;;;4.93;4.43;;;;;;;15.56;100.00;98476.88;2627014;28;20040;-78
2022/09/04 03:47:55;;;;;;;6.90;5.03;;;;;;;15.70;100.00;98487.59;2626984;28;20134;-77
2022/09/04 03:49:15;;;;;;;8.52;4.53;;;;;;;15.70;100.00;98486.75;2626914;28;20458;-78
2022/09/04 03:50:41;;;;;;;5.30;4.45;;;;;;;15.64;100.00;98480.84;2626974;28;20040;-78
2022/09/04 03:52:13;;;;;;;9.77;5.40;;;;;;;15.58;100.00;98486.44;2626682;28;20056;-77
2022/09/04 03:53:58;;;;;;;6.90;4.78;;;;;;;15.54;100.00;98487.50;2626856;28;21439;-77
2022/09/04 03:55:43;;;;;;;6.53;5.10;;;;;;;15.61;100.00;98493.34;2626990;28;20051;-76
2022/09/04 03:57:10;;;;;;;7.35;5.15;;;;;;;15.67;100.00;98490.41;2627003;28;20647;-77
2022/09/04 03:58:38;;;;;;;6.80;5.43;;;;;;;15.62;100.00;98493.25;2626683;28;20070;-77
2022/09/04 04:00:10;;;;;;;7.70;5.28;;;;;;;15.62;100.00;98493.25;2625887;28;20043;-77
2022/09/04 04:01:55;;;;;;;6.68;5.40;;;;;;;15.63;100.00;98496.75;2626717;28;20121;-78
2022/09/04 04:03:35;;;;;;;6.57;4.65;;;;;;;15.67;100.00;98495.69;2626931;28;20210;-78
2022/09/04 04:05:10;;;;;;;7.45;5.50;;;;;;;15.70;100.00;98505.25;2626821;28;20128;-78
2022/09/04 04:06:46;;;;;;;6.18;5.57;;;;;;;15.74;100.00;98496.25;2626756;28;20199;-79
2022/09/04 04:08:32;;;;;;;6.72;5.55;;;;;;;15.76;100.00;98495.25;2626802;28;20074;-78
2022/09/04 04:10:01;;;;;;;7.50;5.47;;;;;;;15.74;100.00;98498.88;2626876;28;20048;-77
2022/09/04 04:11:42;;;;;;;7.57;6.13;;;;;;;15.68;100.00;98498.25;2626843;28;20120;-78
2022/09/04 04:13:34;;;;;;;6.05;5.45;;;;;;;15.67;100.00;98493.91;2626660;28;20604;-78
2022/09/04 04:15:23;;;;;;;7.03;5.60;;;;;;;15.66;100.00;98505.41;2626609;28;20052;-77
2022/09/04 04:16:49;;;;;;;8.50;6.57;;;;;;;15.71;100.00;98505.16;2618624;28;20131;-78
2022/09/04 04:19:01;;;;;;;7.60;5.95;;;;;;;15.74;100.00;98504.16;2626515;28;20071;-77
2022/09/04 04:20:21;;;;;;;10.23;6.00;;;;;;;15.72;100.00;98498.09;2600587;28;20610;-78
2022/09/04 04:21:55;;;;;;;7.72;5.88;;;;;;;15.68;100.00;98503.53;2603407;28;20059;-77
2022/09/04 04:23:19;;;;;;;8.43;5.97;;;;;;;15.68;100.00;98500.91;2603047;28;20053;-77
2022/09/04 04:24:46;;;;;;;8.13;5.95;;;;;;;15.75;100.00;98500.59;2602932;28;20082;-77
2022/09/04 04:26:20;;;;;;;7.13;5.68;;;;;;;15.73;100.00;98495.41;2623952;28;20475;-77
2022/09/04 04:27:57;;;;;;;7.38;5.90;;;;;;;15.62;100.00;98497.69;2626311;28;20456;-78
2022/09/04 04:29:39;;;;;;;6.35;5.10;;;;;;;15.44;100.00;98504.69;2626213;28;20117;-77
2022/09/04 04:31:07;;;;;;;6.00;5.22;;;;;;;15.45;100.00;98511.69;2626305;28;20135;-77
2022/09/04 04:32:42;;;;;;;8.20;4.82;;;;;;;15.42;100.00;98504.75;2626006;28;20399;-77
2022/09/04 04:34:14;;;;;;;6.30;5.20;;;;;;;15.49;100.00;98503.56;2626341;28;20071;-78
2022/09/04 04:35:47;;;;;;;7.55;5.40;;;;;;;15.42;100.00;98511.84;2626249;28;20547;-77
2022/09/04 04:37:16;;;;;;;10.15;5.60;;;;;;;15.46;100.00;98510.75;2628261;28;20039;-77
2022/09/04 04:38:56;;;;;;;7.93;5.57;;;;;;;15.52;100.00;98513.97;2628431;28;20044;-77
2022/09/04 04:40:37;;;;;;;7.63;5.25;;;;;;;15.57;100.00;98512.88;2628165;28;20486;-77
2022/09/04 04:42:27;;;;;;;7.22;5.13;;;;;;;15.54;100.00;98517.38;2628276;28;20481;-79
2022/09/04 04:44:08;;;;;;;6.80;5.80;;;;;;;15.63;100.00;98521.34;2627997;28;20047;-78
2022/09/04 04:47:19;;;;;;;7.43;5.18;;;;;;;15.80;100.00;98523.19;2628202;28;20044;-77
2022/09/04 04:48:56;;;;;;;5.57;4.70;;;;;;;15.79;100.00;98525.94;2628306;28;20133;-78
2022/09/04 04:50:20;;;;;;;6.65;5.20;;;;;;;15.80;100.00;98530.28;2627711;28;20036;-77
2022/09/04 04:51:39;;;;;;;6.55;5.35;;;;;;;15.71;100.00;98531.53;2627488;28;20109;-78
2022/09/04 04:53:45;;;;;;;7.10;5.45;;;;;;;15.66;100.00;98533.56;2627567;28;20158;-78
2022/09/04 04:55:20;;;;;;;7.30;5.38;;;;;;;15.64;100.00;98538.06;2595207;28;20049;-79
2022/09/04 04:57:08;;;;;;;6.68;5.22;;;;;;;15.70;100.00;98535.13;2594845;28;20390;-78
2022/09/04 04:58:39;;;;;;;8.57;5.38;;;;;;;15.73;100.00;98540.28;2627932;28;20093;-79
2022/09/04 05:00:18;;;;;;;7.10;5.38;;;;;;;15.79;100.00;98547.03;2628174;28;20131;-78
2022/09/04 05:01:51;;;;;;;8.77;5.47;;;;;;;15.87;100.00;98546.69;2627981;28;20044;-78
2022/09/04 05:03:15;;;;;;;6.63;5.20;;;;;;;15.91;100.00;98542.97;2627699;28;20059;-78
2022/09/04 05:05:01;;;;;;;7.80;5.47;;;;;;;16.03;100.00;98550.31;2627930;28;20121;-78
2022/09/04 05:06:30;;;;;;;10.13;6.45;;;;;;;16.06;100.00;98549.28;2627637;28;20056;-77
2022/09/04 05:08:07;;;;;;;7.50;5.82;;;;;;;16.10;100.00;98550.88;2627539;28;20138;-77
2022/09/04 05:09:50;;;;;;;8.57;6.10;;;;;;;16.09;100.00;98559.72;2627235;28;20382;-78
2022/09/04 05:11:25;;;;;;;8.55;5.78;;;;;;;15.98;100.00;98564.66;2626547;28;20044;-78
2022/09/04 05:13:08;;;;;;;8.27;6.32;;;;;;;16.09;100.00;98567.66;2627896;28;20544;-77
2022/09/04 05:14:37;;;;;;;7.70;5.38;;;;;;;16.06;100.00;98571.28;2627444;28;20047;-77
2022/09/04 05:16:03;;;;;;;6.60;5.80;;;;;;;16.07;100.00;98566.88;2627902;28;20044;-77
2022/09/04 05:17:24;;;;;;;10.90;5.50;;;;;;;16.08;100.00;98573.88;2627592;28;20482;-81
2022/09/04 05:19:08;;;;;;;6.65;5.13;;;;;;;16.13;100.00;98578.91;2626111;28;20159;-77
2022/09/04 05:20:34;;;;;;;7.90;5.30;;;;;;;16.05;100.00;98561.66;2625399;28;20044;-77
2022/09/04 05:22:02;;;;;;;8.00;5.88;;;;;;;16.19;100.00;98573.31;2626740;28;20044;-78
2022/09/04 05:23:48;;;;;;;7.15;5.57;;;;;;;16.07;100.00;98572.16;2626744;28;20777;-77
2022/09/04 05:25:24;;;;;;;7.32;5.82;;;;;;;16.14;100.00;98572.72;2627689;28;20237;-77
2022/09/04 05:26:53;;;;;;;7.22;5.65;;;;;;;16.14;100.00;98578.84;2627371;28;20047;-79
2022/09/04 05:28:27;;;;;;;10.23;5.68;;;;;;;16.14;100.00;98578.84;2627053;28;20054;-78
2022/09/04 05:29:50;;;;;;;6.63;5.35;;;;;;;16.27;100.00;98586.16;2627990;28;20458;-79
2022/09/04 05:31:15;;;;;;;;;;;;;;;16.28;100.00;98579.94;2628402;28;20052;-78
2022/09/04 05:32:43;;;;;;;9.00;5.50;;;;;;;16.30;100.00;98583.34;2627608;28;19955;-78
2022/09/04 05:34:33;;;;;;;5.93;5.30;;;;;;;16.32;100.00;98582.38;2627030;28;20405;-79
2022/09/04 05:35:58;;;;;;;7.00;5.10;;;;;;;16.33;100.00;98583.19;2627022;28;20595;-78
2022/09/04 05:37:20;;;;;;;8.32;5.55;;;;;;;16.44;100.00;98585.34;2626834;28;20056;-79
2022/09/04 05:39:03;;;;;;;7.32;5.47;;;;;;;16.45;100.00;98579.94;2626888;28;20478;-79
2022/09/04 05:40:28;;;;;;;10.23;5.60;;;;;;;16.46;100.00;98594.03;2626057;28;20087;-78
2022/09/04 05:41:59;;;;;;;7.68;5.28;;;;;;;16.63;100.00;98590.56;2626491;28;20075;-80
2022/09/04 05:43:39;;;;;;;7.15;5.57;;;;;;;16.67;100.00;98594.75;2627350;28;20418;-80
2022/09/04 05:45:05;;;;;;;7.72;5.70;;;;;;;16.42;100.00;98590.69;2626789;28;20481;-79
2022/09/04 05:46:31;;;;;;;8.43;5.68;;;;;;;16.62;100.00;98594.09;2624250;28;20476;-80
2022/09/04 05:48:21;;;;;;;6.60;5.07;;;;;;;16.82;100.00;98594.91;2625024;28;20044;-83
2022/09/04 05:49:39;;;;;;;8.43;5.45;;;;;;;16.85;100.00;98600.03;2626874;28;20098;-83
2022/09/04 05:51:35;;;;;;;10.48;5.20;;;;;;;16.93;100.00;98600.50;2627068;28;20554;-82
2022/09/04 05:52:51;;;;;;;7.15;5.50;;;;;;;16.98;100.00;98600.25;2626131;28;20126;-85
2022/09/04 05:54:28;;;;;;;7.70;5.15;;;;;;;16.97;100.00;98604.69;2622545;28;20052;-82
2022/09/04 05:56:00;;;;;;;6.65;5.10;;;;;;;16.93;100.00;98611.06;2626920;28;20079;-83
2022/09/04 05:57:24;;;;;;;8.85;5.40;;;;;;;17.07;100.00;98611.25;2627167;28;20059;-82
2022/09/04 05:58:58;;;;;;;8.73;5.60;;;;;;;16.96;100.00;98608.25;2626996;28;20498;-83
2022/09/04 06:00:15;;;;;;;6.93;5.43;;;;;;;16.97;100.00;98614.38;2626361;28;20051;-82
2022/09/04 06:01:51;;;;;;;7.43;5.50;;;;;;;16.98;100.00;98609.03;2626839;28;20531;-83
2022/09/04 06:03:14;;;;;;;7.22;5.95;;;;;;;17.01;100.00;98608.06;2626538;28;20149;-82
2022/09/04 06:04:51;;;;;;;7.22;5.18;;;;;;;16.97;100.00;98617.03;2626783;28;20086;-82
2022/09/04 06:06:21;;;;;;;7.65;5.10;;;;;;;17.06;100.00;98614.81;2626832;28;20047;-88
2022/09/04 06:08:10;;;;;;;7.10;5.00;;;;;;;16.95;100.00;98615.31;2626950;28;20056;-82
2022/09/04 06:09:31;;;;;;;7.53;5.68;;;;;;;17.15;100.00;98617.91;2626624;28;20043;-82
2022/09/04 06:10:59;;;;;;;6.00;5.40;;;;;;;17.21;100.00;98617.59;2627268;28;20143;-82
2022/09/04 06:12:23;;;;;;;7.10;5.35;;;;;;;17.14;100.00;98608.25;2625288;28;20604;-82
2022/09/04 06:14:07;;;;;;;5.85;5.25;;;;;;;17.13;100.00;98614.50;2626876;28;20816;-84
2022/09/04 06:15:35;;;;;;;7.68;5.38;;;;;;;17.12;100.00;98612.78;2626560;28;20570;-82
2022/09/04 06:16:56;;;;;;;10.48;6.05;;;;;;;17.25;100.00;98610.34;2626928;28;20066;-84
2022/09/04 06:18:14;;;;;;;6.78;5.35;;;;;;;17.10;100.00;98617.31;2627085;28;20054;-86
2022/09/04 06:19:36;;;;;;;6.80;5.78;;;;;;;17.17;100.00;98610.75;2626820;28;20109;-82
2022/09/04 06:21:10;;;;;;;;;;;;;;;17.22;100.00;98611.38;2627416;28;20055;-88
2022/09/04 06:22:47;;;;;;;9.07;5.50;;;;;;;17.31;100.00;98608.22;2626890;28;20211;-83
2022/09/04 06:24:39;;;;;;;6.65;5.35;;;;;;;17.28;100.00;98613.69;2627056;28;20522;-83
2022/09/04 06:26:46;;;;;;;8.23;5.53;;;;;;;17.27;100.00;98611.13;2626762;28;20063;-83
2022/09/04 06:28:23;;;;;;;6.97;5.53;;;;;;;17.23;100.00;98613.91;2627101;28;20444;-82
2022/09/04 06:29:59;;;;;;;7.35;5.32;;;;;;;17.36;100.00;98614.16;2626892;28;20100;-84
2022/09/04 06:31:18;;;;;;;8.00;5.03;;;;;;;17.31;100.00;98613.50;2626816;28;20283;-83
2022/09/04 06:33:11;;;;;;;6.20;5.05;;;;;;;17.29;100.00;98612.75;2626813;28;20043;-82
2022/09/04 06:34:50;;;;;;;8.13;5.32;;;;;;;17.32;100.00;98612.59;2619644;28;20052;-82
2022/09/04 06:36:23;;;;;;;5.82;5.20;;;;;;;17.37;100.00;98607.03;2625486;28;20940;-84
2022/09/04 06:38:12;;;;;;;7.75;5.60;;;;;;;17.41;100.00;98610.38;2626603;28;20063;-82
2022/09/04 06:39:37;;;;;;;6.65;5.18;;;;;;;17.40;100.00;98613.97;2609221;28;20049;-83
2022/09/04 06:40:56;;;;;;;5.70;5.05;;;;;;;17.55;100.00;98614.97;2626789;28;20086;-82
2022/09/04 06:42:14;;;;;;;5.80;4.40;;;;;;;17.54;100.00;98613.25;2626989;28;20055;-82
2022/09/04 06:44:00;;;;;;;6.70;4.72;;;;;;;17.61;100.00;98618.13;2626622;28;20101;-82
2022/09/04 06:45:34;;;;;;;8.15;4.90;;;;;;;17.51;100.00;98612.44;2626788;28;20474;-85
2022/09/04 06:47:27;;;;;;;6.43;4.38;;;;;;;17.71;100.00;98614.97;2626743;28;20055;-82
2022/09/04 06:49:08;;;;;;;5.15;4.18;;;;;;;17.74;100.00;98614.78;2626232;28;20126;-83
2022/09/04 06:50:45;;;;;;;5.13;4.60;;;;;;;17.83;100.00;98622.22;2626801;28;20130;-83
2022/09/04 06:52:18;;;;;;;8.50;5.00;;;;;;;18.05;100.00;98613.97;2625461;28;20082;-80
2022/09/04 06:53:49;;;;;;;6.18;4.57;;;;;;;18.05;100.00;98623.72;2626371;28;20040;-81
2022/09/04 06:55:37;;;;;;;5.53;4.38;;;;;;;17.89;100.00;98628.97;2626592;28;20276;-80
2022/09/04 06:57:11;;;;;;;6.65;4.40;;;;;;;17.92;100.00;98629.69;2624859;28;20063;-87
2022/09/04 06:59:04;;;;;;;5.18;4.68;;;;;;;17.81;100.00;98632.06;2626186;28;20509;-80
2022/09/04 07:00:20;;;;;;;6.38;4.53;;;;;;;18.13;100.00;98631.25;2626448;28;20091;-82
2022/09/04 07:01:51;;;;;;;8.23;4.82;;;;;;;18.01;100.00;98635.38;2626458;28;20044;-81
2022/09/04 07:03:35;;;;;;;6.45;4.70;;;;;;;18.14;100.00;98631.16;2626432;28;20052;-84
2022/09/04 07:04:58;;;;;;;8.57;4.80;;;;;;;18.38;100.00;98641.31;2623932;28;20051;-81
2022/09/04 07:06:24;;;;;;;;;;;;;;;18.15;100.00;98635.50;2626375;28;20601;-81
2022/09/04 07:07:57;;;;;;;5.38;4.63;;;;;;;18.05;100.00;98643.13;2622599;28;19927;-81
2022/09/04 07:09:22;;;;;;;4.88;4.38;;;;;;;18.18;100.00;98645.09;2624726;28;20143;-85
2022/09/04 07:11:02;;;;;;;5.78;4.63;;;;;;;18.52;100.00;98651.13;2625740;28;20517;-86
2022/09/04 07:12:45;;;;;;;5.55;4.70;;;;;;;18.61;100.00;98649.75;2626237;28;20090;-82
2022/09/04 07:14:32;;;;;;;4.78;4.20;;;;;;;18.53;100.00;98654.63;2626741;28;20040;-82
2022/09/04 07:15:57;;;;;;;6.07;4.32;;;;;;;18.67;100.00;98654.69;2626366;28;20063;-81
2022/09/04 07:17:52;;;;;;;5.85;4.38;;;;;;;18.49;100.00;98649.50;2626464;28;20135;-82